createdAt,value
2022-08-17T00:00:51.816Z,82.10
2022-08-17T00:01:52.277Z,82.40
2022-08-17T00:02:47.169Z,81.80
2022-08-17T00:03:47.180Z,81.20
2022-08-17T00:04:50.541Z,82.40
2022-08-17T00:05:47.211Z,82.51
2022-08-17T00:06:49.221Z,82.00
2022-08-17T00:07:47.134Z,82.20
2022-08-17T00:08:47.127Z,82.00
2022-08-17T00:09:47.106Z,83.01
2022-08-17T00:10:47.183Z,82.51
2022-08-17T00:12:40.985Z,82.31
2022-08-17T00:12:49.045Z,83.11
2022-08-17T00:13:47.042Z,83.51
2022-08-17T00:14:47.048Z,81.70
2022-08-17T00:15:47.096Z,82.10
2022-08-17T00:16:56.649Z,82.20
2022-08-17T00:17:47.130Z,82.81
2022-08-17T00:19:05.790Z,83.01
2022-08-17T00:19:47.041Z,82.70
2022-08-17T00:20:47.416Z,82.51
2022-08-17T00:22:32.590Z,82.60
2022-08-17T00:22:47.277Z,83.71
2022-08-17T00:23:49.326Z,82.90
2022-08-17T00:24:46.939Z,82.31
2022-08-17T00:25:47.385Z,81.60
2022-08-17T00:26:47.059Z,82.31
2022-08-17T00:27:47.059Z,82.51
2022-08-17T00:28:46.953Z,82.17
2022-08-17T00:29:46.962Z,81.56
2022-08-17T00:30:52.732Z,81.87
2022-08-17T00:31:47.130Z,81.76
2022-08-17T00:33:12.286Z,81.26
2022-08-17T00:33:46.995Z,81.26
2022-08-17T00:34:46.838Z,81.46
2022-08-17T00:35:46.892Z,81.46
2022-08-17T00:36:47.034Z,81.96
2022-08-17T00:37:47.048Z,81.56
2022-08-17T00:38:46.819Z,81.56
2022-08-17T00:39:46.935Z,81.96
2022-08-17T00:40:46.820Z,81.76
2022-08-17T00:41:47.011Z,81.87
2022-08-17T00:42:46.967Z,82.31
2022-08-17T00:43:46.977Z,81.67
2022-08-17T00:44:46.770Z,82.90
2022-08-17T00:45:47.090Z,84.37
2022-08-17T00:46:46.860Z,83.31
2022-08-17T00:47:46.789Z,82.81
2022-08-17T00:48:46.821Z,82.70
2022-08-17T00:49:46.694Z,82.51
2022-08-17T00:50:46.831Z,82.51
2022-08-17T00:51:46.895Z,82.00
2022-08-17T00:52:46.895Z,82.70
2022-08-17T00:53:46.889Z,82.81
2022-08-17T00:54:47.440Z,82.70
2022-08-17T00:55:46.738Z,82.31
2022-08-17T00:56:46.751Z,82.60
2022-08-17T00:57:46.603Z,81.90
2022-08-17T00:58:46.927Z,82.40
2022-08-17T00:59:46.665Z,82.90
2022-08-17T01:00:47.181Z,83.61
2022-08-17T01:01:46.782Z,83.41
2022-08-17T01:02:46.595Z,82.90
2022-08-17T01:03:46.644Z,82.81
2022-08-17T01:04:46.583Z,82.90
2022-08-17T01:05:46.659Z,82.81
2022-08-17T01:06:46.660Z,83.01
2022-08-17T01:07:46.547Z,82.90
2022-08-17T01:08:46.550Z,83.11
2022-08-17T01:09:46.536Z,82.60
2022-08-17T01:10:58.691Z,82.70
2022-08-17T01:11:46.531Z,82.95
2022-08-17T01:12:46.597Z,83.21
2022-08-17T01:13:46.680Z,83.15
2022-08-17T01:14:46.506Z,83.75
2022-08-17T01:15:46.621Z,84.35
2022-08-17T01:16:46.614Z,83.35
2022-08-17T01:17:46.646Z,82.95
2022-08-17T01:18:46.585Z,83.55
2022-08-17T01:19:46.594Z,82.95
2022-08-17T01:20:48.642Z,83.45
2022-08-17T01:21:46.401Z,83.25
2022-08-17T01:22:46.500Z,83.65
2022-08-17T01:23:46.444Z,83.55
2022-08-17T01:24:46.364Z,82.34
2022-08-17T01:25:46.504Z,83.45
2022-08-17T01:26:46.343Z,83.35
2022-08-17T01:27:46.310Z,83.65
2022-08-17T01:28:53.778Z,83.15
2022-08-17T01:29:46.607Z,83.85
2022-08-17T01:30:56.840Z,83.15
2022-08-17T01:31:46.332Z,82.54
2022-08-17T01:32:46.417Z,83.45
2022-08-17T01:33:46.272Z,83.15
2022-08-17T01:34:50.291Z,83.45
2022-08-17T01:35:46.295Z,83.04
2022-08-17T01:36:46.249Z,83.35
2022-08-17T01:37:46.347Z,83.75
2022-08-17T01:38:46.335Z,82.95
2022-08-17T01:39:46.401Z,82.84
2022-08-17T01:40:46.206Z,83.65
2022-08-17T01:41:46.364Z,83.35
2022-08-17T01:42:46.407Z,83.65
2022-08-17T01:43:46.158Z,84.15
2022-08-17T01:44:46.334Z,83.65
2022-08-17T01:45:46.183Z,83.85
2022-08-17T01:46:46.153Z,84.35
2022-08-17T01:47:46.163Z,84.05
2022-08-17T01:48:46.195Z,84.25
2022-08-17T01:49:46.093Z,84.15
2022-08-17T01:50:46.172Z,84.45
2022-08-17T01:51:46.208Z,84.55
2022-08-17T01:52:46.560Z,84.80
2022-08-17T01:53:46.088Z,84.09
2022-08-17T01:54:46.250Z,84.89
2022-08-17T01:55:46.184Z,85.19
2022-08-17T01:56:47.299Z,84.80
2022-08-17T01:57:46.006Z,83.89
2022-08-17T01:58:46.023Z,84.09
2022-08-17T01:59:46.443Z,84.09
2022-08-17T02:00:59.588Z,84.23
2022-08-17T02:01:46.310Z,84.23
2022-08-17T02:02:46.131Z,84.43
2022-08-17T02:03:56.215Z,84.23
2022-08-17T02:04:45.980Z,84.33
2022-08-17T02:05:45.975Z,84.43
2022-08-17T02:06:53.598Z,84.13
2022-08-17T02:08:00.579Z,84.23
2022-08-17T02:08:57.039Z,84.43
2022-08-17T02:09:45.910Z,84.53
2022-08-17T02:10:46.852Z,84.53
2022-08-17T02:11:46.259Z,84.43
2022-08-17T02:12:45.856Z,84.63
2022-08-17T02:13:45.839Z,84.63
2022-08-17T02:14:45.831Z,84.13
2022-08-17T02:15:46.043Z,84.43
2022-08-17T02:16:45.937Z,84.53
2022-08-17T02:17:45.855Z,84.63
2022-08-17T02:18:45.807Z,84.83
2022-08-17T02:19:45.823Z,85.33
2022-08-17T02:20:45.791Z,85.24
2022-08-17T02:21:45.770Z,85.14
2022-08-17T02:22:46.002Z,84.94
2022-08-17T02:23:45.837Z,85.28
2022-08-17T02:24:58.485Z,84.97
2022-08-17T02:25:45.751Z,84.77
2022-08-17T02:26:45.849Z,84.88
2022-08-17T02:27:45.750Z,84.67
2022-08-17T02:28:45.766Z,84.88
2022-08-17T02:29:45.759Z,84.67
2022-08-17T02:30:59.553Z,85.28
2022-08-17T02:31:45.679Z,84.97
2022-08-17T02:32:45.730Z,84.97
2022-08-17T02:33:45.685Z,85.08
2022-08-17T02:34:45.677Z,84.67
2022-08-17T02:35:45.678Z,84.57
2022-08-17T02:36:45.638Z,85.48
2022-08-17T02:37:45.644Z,86.08
2022-08-17T02:38:45.794Z,85.88
2022-08-17T02:39:45.675Z,86.08
2022-08-17T02:40:45.681Z,85.48
2022-08-17T02:41:45.642Z,85.58
2022-08-17T02:42:45.794Z,86.58
2022-08-17T02:43:45.562Z,86.58
2022-08-17T02:44:45.589Z,86.38
2022-08-17T02:45:45.554Z,85.78
2022-08-17T02:46:45.691Z,86.08
2022-08-17T02:47:45.599Z,86.58
2022-08-17T02:48:45.559Z,86.68
2022-08-17T02:49:49.300Z,86.68
2022-08-17T02:50:45.558Z,86.48
2022-08-17T02:51:45.631Z,87.39
2022-08-17T02:52:45.650Z,87.69
2022-08-17T02:53:45.554Z,87.49
2022-08-17T02:54:45.482Z,87.08
2022-08-17T02:55:45.487Z,86.88
2022-08-17T02:56:45.433Z,86.68
2022-08-17T02:57:45.649Z,86.88
2022-08-17T02:58:45.482Z,86.72
2022-08-17T02:59:48.942Z,86.93
2022-08-17T03:00:45.397Z,87.13
2022-08-17T03:01:45.476Z,87.33
2022-08-17T03:02:45.638Z,87.23
2022-08-17T03:03:45.400Z,87.33
2022-08-17T03:04:45.439Z,87.53
2022-08-17T03:05:45.639Z,87.83
2022-08-17T03:06:45.594Z,87.93
2022-08-17T03:07:45.359Z,88.38
2022-08-17T03:08:45.323Z,89.08
2022-08-17T03:09:45.324Z,88.58
2022-08-17T03:10:45.326Z,88.28
2022-08-17T03:11:45.368Z,88.68
2022-08-17T03:12:45.438Z,88.58
2022-08-17T03:13:45.277Z,88.98
2022-08-17T03:14:45.234Z,88.88
2022-08-17T03:15:45.350Z,88.68
2022-08-17T03:16:45.240Z,88.48
2022-08-17T03:17:45.484Z,88.42
2022-08-17T03:18:45.247Z,88.62
2022-08-17T03:19:45.216Z,89.63
2022-08-17T03:20:45.214Z,88.72
2022-08-17T03:21:45.205Z,88.82
2022-08-17T03:22:49.429Z,89.32
2022-08-17T03:23:45.277Z,89.83
2022-08-17T03:24:45.350Z,89.83
2022-08-17T03:25:45.199Z,89.23
2022-08-17T03:26:45.197Z,89.43
2022-08-17T03:27:45.158Z,89.63
2022-08-17T03:28:45.128Z,89.83
2022-08-17T03:29:45.159Z,90.13
2022-08-17T03:30:45.117Z,89.93
2022-08-17T03:31:45.309Z,90.13
2022-08-17T03:32:45.245Z,90.23
2022-08-17T03:33:45.202Z,90.73
2022-08-17T03:34:45.041Z,91.14
2022-08-17T03:35:45.117Z,90.94
2022-08-17T03:36:45.041Z,90.73
2022-08-17T03:37:45.039Z,90.73
2022-08-17T03:38:45.157Z,90.84
2022-08-17T03:39:45.017Z,90.94
2022-08-17T03:40:57.602Z,90.84
2022-08-17T03:41:45.040Z,90.94
2022-08-17T03:42:44.998Z,91.14
2022-08-17T03:43:45.000Z,91.04
2022-08-17T03:44:44.966Z,91.04
2022-08-17T03:45:44.958Z,90.94
2022-08-17T03:46:44.959Z,91.14
2022-08-17T03:47:44.925Z,91.44
2022-08-17T03:48:44.958Z,91.34
2022-08-17T03:49:44.925Z,91.18
2022-08-17T03:50:44.914Z,91.49
2022-08-17T03:51:45.014Z,91.49
2022-08-17T03:52:44.921Z,91.69
2022-08-17T03:53:44.922Z,92.09
2022-08-17T03:54:44.918Z,91.69
2022-08-17T03:55:44.843Z,91.69
2022-08-17T03:56:44.839Z,91.78
2022-08-17T03:57:45.045Z,91.78
2022-08-17T03:58:45.077Z,91.78
2022-08-17T03:59:45.354Z,91.18
2022-08-17T04:00:44.838Z,91.58
2022-08-17T04:01:44.892Z,91.78
2022-08-17T04:02:44.806Z,92.09
2022-08-17T04:03:44.722Z,92.19
2022-08-17T04:04:44.958Z,91.99
2022-08-17T04:05:44.798Z,91.69
2022-08-17T04:06:44.729Z,91.69
2022-08-17T04:07:44.799Z,91.99
2022-08-17T04:08:44.763Z,92.29
2022-08-17T04:09:44.773Z,92.19
2022-08-17T04:10:45.147Z,92.09
2022-08-17T04:11:44.676Z,92.29
2022-08-17T04:12:44.685Z,91.89
2022-08-17T04:13:45.128Z,92.19
2022-08-17T04:14:52.776Z,91.99
2022-08-17T04:15:44.636Z,91.99
2022-08-17T04:16:44.683Z,92.19
2022-08-17T04:17:44.688Z,91.58
2022-08-17T04:18:44.593Z,91.83
2022-08-17T04:19:44.593Z,91.69
2022-08-17T04:20:44.575Z,91.73
2022-08-17T04:21:44.657Z,92.33
2022-08-17T04:22:44.812Z,92.54
2022-08-17T04:23:44.721Z,92.03
2022-08-17T04:24:44.525Z,92.03
2022-08-17T04:25:44.593Z,92.43
2022-08-17T04:26:53.002Z,92.23
2022-08-17T04:27:44.496Z,91.93
2022-08-17T04:28:44.901Z,91.73
2022-08-17T04:29:44.775Z,91.93
2022-08-17T04:30:44.586Z,91.73
2022-08-17T04:31:44.546Z,91.83
2022-08-17T04:33:00.681Z,91.73
2022-08-17T04:33:44.460Z,91.73
2022-08-17T04:34:44.517Z,91.73
2022-08-17T04:35:44.481Z,91.93
2022-08-17T04:36:50.244Z,92.03
2022-08-17T04:37:44.551Z,92.43
2022-08-17T04:38:44.405Z,92.33
2022-08-17T04:39:44.710Z,92.63
2022-08-17T04:40:44.382Z,92.74
2022-08-17T04:41:44.525Z,92.33
2022-08-17T04:42:44.556Z,92.33
2022-08-17T04:43:44.522Z,92.03
2022-08-17T04:44:44.403Z,92.03
2022-08-17T04:45:55.111Z,92.13
2022-08-17T04:46:44.396Z,92.23
2022-08-17T04:47:44.337Z,92.74
2022-08-17T04:48:44.564Z,92.63
2022-08-17T04:49:44.466Z,92.59
2022-08-17T04:50:44.326Z,92.19
2022-08-17T04:51:47.899Z,92.19
2022-08-17T04:52:44.463Z,92.39
2022-08-17T04:53:44.467Z,92.49
2022-08-17T04:54:44.672Z,92.19
2022-08-17T04:55:44.569Z,92.29
2022-08-17T04:56:44.341Z,92.49
2022-08-17T04:57:45.232Z,92.29
2022-08-17T04:58:44.330Z,92.59
2022-08-17T04:59:44.256Z,92.29
2022-08-17T05:00:44.321Z,92.19
2022-08-17T05:01:44.226Z,92.49
2022-08-17T05:02:50.273Z,92.29
2022-08-17T05:03:44.372Z,92.19
2022-08-17T05:04:44.142Z,92.29
2022-08-17T05:05:44.198Z,92.14
2022-08-17T05:06:44.112Z,91.74
2022-08-17T05:07:44.169Z,92.35
2022-08-17T05:08:44.080Z,92.25
2022-08-17T05:09:44.060Z,91.94
2022-08-17T05:10:45.404Z,92.35
2022-08-17T05:11:44.919Z,92.25
2022-08-17T05:12:44.058Z,91.74
2022-08-17T05:13:44.139Z,91.64
2022-08-17T05:14:44.115Z,92.14
2022-08-17T05:15:45.155Z,92.00
2022-08-17T05:16:44.152Z,92.00
2022-08-17T05:17:44.073Z,91.80
2022-08-17T05:18:44.149Z,91.60
2022-08-17T05:19:45.728Z,91.39
2022-08-17T05:20:43.958Z,91.60
2022-08-17T05:21:43.958Z,91.70
2022-08-17T05:22:43.958Z,91.60
2022-08-17T05:23:43.950Z,92.06
2022-08-17T05:24:53.605Z,91.75
2022-08-17T05:25:45.681Z,90.95
2022-08-17T05:26:44.074Z,90.65
2022-08-17T05:27:43.879Z,91.25
2022-08-17T05:28:44.067Z,91.15
2022-08-17T05:29:43.855Z,91.66
2022-08-17T05:30:43.881Z,91.21
2022-08-17T05:31:43.853Z,91.21
2022-08-17T05:32:43.845Z,91.31
2022-08-17T05:33:46.168Z,91.01
2022-08-17T05:34:43.852Z,88.59
2022-08-17T05:35:44.020Z,89.10
2022-08-17T05:36:44.602Z,89.80
2022-08-17T05:37:43.924Z,90.91
2022-08-17T05:38:43.807Z,90.56
2022-08-17T05:39:43.816Z,90.86
2022-08-17T05:40:43.766Z,91.17
2022-08-17T05:41:43.848Z,90.86
2022-08-17T05:42:43.919Z,90.56
2022-08-17T05:43:43.814Z,91.17
2022-08-17T05:44:43.676Z,91.32
2022-08-17T05:45:55.400Z,90.92
2022-08-17T05:46:43.681Z,91.42
2022-08-17T05:47:43.814Z,90.82
2022-08-17T05:48:43.775Z,90.72
2022-08-17T05:49:43.657Z,90.32
2022-08-17T05:50:43.762Z,89.72
2022-08-17T05:51:44.026Z,90.62
2022-08-17T05:52:43.939Z,90.17
2022-08-17T05:53:43.647Z,89.67
2022-08-17T05:54:43.578Z,89.87
2022-08-17T05:55:43.620Z,87.46
2022-08-17T05:56:43.549Z,87.77
2022-08-17T05:57:53.310Z,88.17
2022-08-17T05:58:43.545Z,89.87
2022-08-17T05:59:43.778Z,89.13
2022-08-17T06:00:43.633Z,89.03
2022-08-17T06:01:43.565Z,89.33
2022-08-17T06:02:47.679Z,89.23
2022-08-17T06:03:43.855Z,89.03
2022-08-17T06:04:43.576Z,87.32
2022-08-17T06:05:43.891Z,87.08
2022-08-17T06:06:43.669Z,87.68
2022-08-17T06:07:44.052Z,87.78
2022-08-17T06:08:43.671Z,87.38
2022-08-17T06:09:43.508Z,88.09
2022-08-17T06:10:43.553Z,87.88
2022-08-17T06:11:43.516Z,87.74
2022-08-17T06:12:43.480Z,87.64
2022-08-17T06:13:43.428Z,87.34
2022-08-17T06:14:43.641Z,87.34
2022-08-17T06:15:43.590Z,87.44
2022-08-17T06:16:43.474Z,87.44
2022-08-17T06:17:43.514Z,87.10
2022-08-17T06:18:43.580Z,87.00
2022-08-17T06:19:43.412Z,86.60
2022-08-17T06:20:43.352Z,83.29
2022-08-17T06:21:43.509Z,83.79
2022-08-17T06:22:43.363Z,84.79
2022-08-17T06:23:43.510Z,84.75
2022-08-17T06:24:43.424Z,84.75
2022-08-17T06:25:43.508Z,84.85
2022-08-17T06:26:43.602Z,84.35
2022-08-17T06:27:43.406Z,84.15
2022-08-17T06:28:43.286Z,80.94
2022-08-17T06:29:43.311Z,81.15
2022-08-17T06:30:59.958Z,82.01
2022-08-17T06:31:43.321Z,82.61
2022-08-17T06:32:43.560Z,82.31
2022-08-17T06:33:43.299Z,79.50
2022-08-17T06:34:43.370Z,78.70
2022-08-17T06:35:43.701Z,78.91
2022-08-17T06:36:43.235Z,79.67
2022-08-17T06:37:43.174Z,80.27
2022-08-17T06:38:43.231Z,81.77
2022-08-17T06:39:43.299Z,82.47
2022-08-17T06:40:43.208Z,81.77
2022-08-17T06:41:43.240Z,81.27
2022-08-17T06:43:05.150Z,81.47
2022-08-17T06:43:47.811Z,81.03
2022-08-17T06:44:51.198Z,81.67
2022-08-17T06:45:43.171Z,81.43
2022-08-17T06:46:43.157Z,81.83
2022-08-17T06:47:43.157Z,81.23
2022-08-17T06:48:43.121Z,80.13
2022-08-17T06:49:43.156Z,80.53
2022-08-17T06:50:43.086Z,81.83
2022-08-17T06:51:43.118Z,79.93
2022-08-17T06:52:46.690Z,80.33
2022-08-17T06:53:43.160Z,80.73
2022-08-17T06:54:43.046Z,80.33
2022-08-17T06:55:43.048Z,80.83
2022-08-17T06:56:53.248Z,79.83
2022-08-17T06:57:43.079Z,78.93
2022-08-17T06:58:42.998Z,78.23
2022-08-17T06:59:54.814Z,77.03
2022-08-17T07:00:43.171Z,77.83
2022-08-17T07:01:42.965Z,78.79
2022-08-17T07:02:52.933Z,79.19
2022-08-17T07:03:42.968Z,78.69
2022-08-17T07:04:42.922Z,78.39
2022-08-17T07:05:42.919Z,77.99
2022-08-17T07:06:42.960Z,78.49
2022-08-17T07:07:42.877Z,77.36
2022-08-17T07:08:42.880Z,78.66
2022-08-17T07:09:42.888Z,79.65
2022-08-17T07:10:42.882Z,78.66
2022-08-17T07:11:42.881Z,77.75
2022-08-17T07:12:42.945Z,76.76
2022-08-17T07:13:42.954Z,77.06
2022-08-17T07:14:43.049Z,75.16
2022-08-17T07:15:43.003Z,74.32
2022-08-17T07:16:42.845Z,71.03
2022-08-17T07:17:57.005Z,73.12
2022-08-17T07:18:42.817Z,74.02
2022-08-17T07:19:42.803Z,74.12
2022-08-17T07:20:43.139Z,74.82
2022-08-17T07:21:43.015Z,74.49
2022-08-17T07:22:57.564Z,73.09
2022-08-17T07:23:42.803Z,73.49
2022-08-17T07:24:42.768Z,70.19
2022-08-17T07:25:42.773Z,72.89
2022-08-17T07:26:42.912Z,72.99
2022-08-17T07:27:43.006Z,71.09
2022-08-17T07:28:42.693Z,71.66
2022-08-17T07:29:42.812Z,71.45
2022-08-17T07:30:46.809Z,70.95
2022-08-17T07:31:42.718Z,70.06
2022-08-17T07:32:42.615Z,69.96
2022-08-17T07:33:42.787Z,70.06
2022-08-17T07:34:42.616Z,69.46
2022-08-17T07:35:44.092Z,70.92
2022-08-17T07:36:42.646Z,71.92
2022-08-17T07:37:42.800Z,72.12
2022-08-17T07:38:42.645Z,70.72
2022-08-17T07:40:15.179Z,71.32
2022-08-17T07:40:42.671Z,69.32
2022-08-17T07:41:53.425Z,69.73
2022-08-17T07:42:46.598Z,69.89
2022-08-17T07:43:42.963Z,70.29
2022-08-17T07:44:42.555Z,69.89
2022-08-17T07:45:42.770Z,70.29
2022-08-17T07:46:42.572Z,71.25
2022-08-17T07:47:42.751Z,71.25
2022-08-17T07:48:42.571Z,72.25
2022-08-17T07:49:42.487Z,68.96
2022-08-17T07:50:42.489Z,70.75
2022-08-17T07:51:42.495Z,69.86
2022-08-17T07:52:50.733Z,70.06
2022-08-17T07:53:42.503Z,70.36
2022-08-17T07:54:42.635Z,68.56
2022-08-17T07:55:42.531Z,69.26
2022-08-17T07:56:42.447Z,70.92
2022-08-17T07:57:42.485Z,70.32
2022-08-17T07:58:42.407Z,69.43
2022-08-17T07:59:43.281Z,70.72
2022-08-17T08:00:42.402Z,70.03
2022-08-17T08:01:42.555Z,71.32
2022-08-17T08:02:42.494Z,71.62
2022-08-17T08:03:42.448Z,70.82
2022-08-17T08:04:59.755Z,69.49
2022-08-17T08:05:50.420Z,70.89
2022-08-17T08:06:42.373Z,70.79
2022-08-17T08:07:42.295Z,72.08
2022-08-17T08:08:42.489Z,71.55
2022-08-17T08:09:42.296Z,70.65
2022-08-17T08:10:42.806Z,71.65
2022-08-17T08:11:44.363Z,71.05
2022-08-17T08:12:42.562Z,71.61
2022-08-17T08:13:42.866Z,70.32
2022-08-17T08:14:42.397Z,71.01
2022-08-17T08:15:45.217Z,69.62
2022-08-17T08:16:42.409Z,71.22
2022-08-17T08:17:42.250Z,70.39
2022-08-17T08:18:55.842Z,68.10
2022-08-17T08:19:42.158Z,68.60
2022-08-17T08:20:52.932Z,68.70
2022-08-17T08:21:42.323Z,68.99
2022-08-17T08:22:42.243Z,68.50
2022-08-17T08:23:42.678Z,69.89
2022-08-17T08:24:42.137Z,70.29
2022-08-17T08:25:42.168Z,70.78
2022-08-17T08:26:42.133Z,69.89
2022-08-17T08:27:42.128Z,67.80
2022-08-17T08:28:42.207Z,68.70
2022-08-17T08:29:42.290Z,70.29
2022-08-17T08:30:42.199Z,71.08
2022-08-17T08:31:42.556Z,67.54
2022-08-17T08:32:42.091Z,69.43
2022-08-17T08:33:42.204Z,71.58
2022-08-17T08:34:45.434Z,71.38
2022-08-17T08:35:42.178Z,71.68
2022-08-17T08:37:14.974Z,72.28
2022-08-17T08:37:50.950Z,71.38
2022-08-17T08:38:42.255Z,72.21
2022-08-17T08:39:42.217Z,69.43
2022-08-17T08:40:42.275Z,70.72
2022-08-17T08:41:42.233Z,72.21
2022-08-17T08:42:42.114Z,68.33
2022-08-17T08:43:42.163Z,71.22
2022-08-17T08:45:00.801Z,69.23
2022-08-17T08:45:42.033Z,70.62
2022-08-17T08:46:41.965Z,69.82
2022-08-17T08:47:42.235Z,70.52
2022-08-17T08:48:53.899Z,72.51
2022-08-17T08:50:41.939Z,70.59
2022-08-17T08:51:41.913Z,69.49
2022-08-17T08:52:42.108Z,69.59
2022-08-17T08:53:41.889Z,69.89
2022-08-17T08:54:41.886Z,69.29
2022-08-17T08:55:42.309Z,68.96
2022-08-17T08:56:58.954Z,69.96
2022-08-17T08:57:41.931Z,70.75
2022-08-17T08:58:42.755Z,69.06
2022-08-17T08:59:44.313Z,67.18
2022-08-17T09:00:41.971Z,66.88
2022-08-17T09:01:41.847Z,68.86
2022-08-17T09:02:41.802Z,70.06
2022-08-17T09:03:52.266Z,70.15
2022-08-17T09:05:10.565Z,70.55
2022-08-17T09:05:41.795Z,69.76
2022-08-17T09:06:41.746Z,70.45
2022-08-17T09:07:41.719Z,70.45
2022-08-17T09:08:41.799Z,71.05
2022-08-17T09:09:41.728Z,68.66
2022-08-17T09:10:41.797Z,68.37
2022-08-17T09:12:02.163Z,68.50
2022-08-17T09:12:41.738Z,69.79
2022-08-17T09:13:41.693Z,70.19
2022-08-17T09:14:45.431Z,69.49
2022-08-17T09:15:41.694Z,71.08
2022-08-17T09:16:42.063Z,68.60
2022-08-17T09:17:41.918Z,69.23
2022-08-17T09:19:00.458Z,70.72
2022-08-17T09:19:41.617Z,71.81
2022-08-17T09:20:44.288Z,70.22
2022-08-17T09:21:48.594Z,68.23
2022-08-17T09:22:41.660Z,69.92
2022-08-17T09:23:41.650Z,70.62
2022-08-17T09:24:41.614Z,70.92
2022-08-17T09:25:41.662Z,70.12
2022-08-17T09:26:41.574Z,71.12
2022-08-17T09:27:41.585Z,70.62
2022-08-17T09:28:41.664Z,71.22
2022-08-17T09:29:41.575Z,72.21
2022-08-17T09:30:41.537Z,72.01
2022-08-17T09:31:47.049Z,70.72
2022-08-17T09:32:41.542Z,71.72
2022-08-17T09:33:41.607Z,71.81
2022-08-17T09:34:43.576Z,72.71
2022-08-17T09:35:41.680Z,72.41
2022-08-17T09:36:41.525Z,70.42
2022-08-17T09:37:41.524Z,70.92
2022-08-17T09:38:41.457Z,71.51
2022-08-17T09:39:41.783Z,73.50
2022-08-17T09:40:41.649Z,71.72
2022-08-17T09:41:49.255Z,70.52
2022-08-17T09:42:41.457Z,72.61
2022-08-17T09:43:41.500Z,71.01
2022-08-17T09:44:41.541Z,70.42
2022-08-17T09:45:41.415Z,69.62
2022-08-17T09:46:41.413Z,70.32
2022-08-17T09:47:41.495Z,70.92
2022-08-17T09:48:41.447Z,70.72
2022-08-17T09:49:41.414Z,71.31
2022-08-17T09:51:05.299Z,71.01
2022-08-17T09:51:41.414Z,72.41
2022-08-17T09:52:41.533Z,70.82
2022-08-17T09:53:41.422Z,70.82
2022-08-17T09:54:41.414Z,72.31
2022-08-17T09:55:41.293Z,71.22
2022-08-17T09:56:46.186Z,70.82
2022-08-17T09:57:41.455Z,69.23
2022-08-17T09:58:41.466Z,71.31
2022-08-17T09:59:41.896Z,70.22
2022-08-17T10:00:41.454Z,71.01
2022-08-17T10:01:41.336Z,71.51
2022-08-17T10:02:41.284Z,73.00
2022-08-17T10:03:41.233Z,72.11
2022-08-17T10:04:41.259Z,72.11
2022-08-17T10:05:41.271Z,71.55
2022-08-17T10:06:41.465Z,71.95
2022-08-17T10:07:41.347Z,73.04
2022-08-17T10:08:41.174Z,72.64
2022-08-17T10:09:41.256Z,71.45
2022-08-17T10:10:41.873Z,71.15
2022-08-17T10:11:45.551Z,71.35
2022-08-17T10:12:45.168Z,72.14
2022-08-17T10:13:41.117Z,74.24
2022-08-17T10:14:44.531Z,71.55
2022-08-17T10:15:42.658Z,73.24
2022-08-17T10:16:41.306Z,74.24
2022-08-17T10:17:41.341Z,74.73
2022-08-17T10:18:41.341Z,74.20
2022-08-17T10:19:44.088Z,72.55
2022-08-17T10:20:41.143Z,71.35
2022-08-17T10:21:41.422Z,72.55
2022-08-17T10:22:41.070Z,73.84
2022-08-17T10:23:41.040Z,74.13
2022-08-17T10:24:41.051Z,73.84
2022-08-17T10:25:56.486Z,73.34
2022-08-17T10:26:46.263Z,73.64
2022-08-17T10:27:40.989Z,72.94
2022-08-17T10:28:41.012Z,71.35
2022-08-17T10:29:49.644Z,72.05
2022-08-17T10:30:41.033Z,72.34
2022-08-17T10:31:41.034Z,72.55
2022-08-17T10:32:40.906Z,72.64
2022-08-17T10:33:40.976Z,71.69
2022-08-17T10:34:41.616Z,72.58
2022-08-17T10:35:41.118Z,73.28
2022-08-17T10:36:41.132Z,71.88
2022-08-17T10:37:41.140Z,72.48
2022-08-17T10:38:41.000Z,73.28
2022-08-17T10:39:51.892Z,72.98
2022-08-17T10:40:41.136Z,73.51
2022-08-17T10:41:41.113Z,74.01
2022-08-17T10:42:41.005Z,73.01
2022-08-17T10:43:40.904Z,73.61
2022-08-17T10:44:41.537Z,73.21
2022-08-17T10:45:40.993Z,74.30
2022-08-17T10:46:40.933Z,74.51
2022-08-17T10:47:54.940Z,74.71
2022-08-17T10:48:40.862Z,73.81
2022-08-17T10:49:40.855Z,75.31
2022-08-17T10:50:40.829Z,74.71
2022-08-17T10:51:40.834Z,75.90
2022-08-17T10:52:40.779Z,74.24
2022-08-17T10:53:40.892Z,74.24
2022-08-17T10:54:41.040Z,75.31
2022-08-17T10:55:40.742Z,76.54
2022-08-17T10:56:40.719Z,76.54
2022-08-17T10:57:40.746Z,76.93
2022-08-17T10:58:40.734Z,77.43
2022-08-17T10:59:40.815Z,76.14
2022-08-17T11:00:40.696Z,77.13
2022-08-17T11:01:40.691Z,76.64
2022-08-17T11:02:40.623Z,77.37
2022-08-17T11:03:40.630Z,76.07
2022-08-17T11:04:40.645Z,76.77
2022-08-17T11:05:43.691Z,77.17
2022-08-17T11:06:40.584Z,76.77
2022-08-17T11:07:40.602Z,76.97
2022-08-17T11:08:40.792Z,76.17
2022-08-17T11:09:40.601Z,75.87
2022-08-17T11:10:40.633Z,76.37
2022-08-17T11:11:40.587Z,76.61
2022-08-17T11:12:42.249Z,76.51
2022-08-17T11:13:40.594Z,77.40
2022-08-17T11:14:40.508Z,77.70
2022-08-17T11:15:40.553Z,76.81
2022-08-17T11:16:40.584Z,77.51
2022-08-17T11:17:40.640Z,77.40
2022-08-17T11:18:40.732Z,77.51
2022-08-17T11:19:40.515Z,77.61
2022-08-17T11:20:40.550Z,77.40
2022-08-17T11:21:40.543Z,77.61
2022-08-17T11:22:40.546Z,77.81
2022-08-17T11:23:40.542Z,77.14
2022-08-17T11:24:40.458Z,77.64
2022-08-17T11:25:40.470Z,77.04
2022-08-17T11:26:40.533Z,77.44
2022-08-17T11:27:40.424Z,78.54
2022-08-17T11:28:40.427Z,77.64
2022-08-17T11:29:40.465Z,78.74
2022-08-17T11:30:40.503Z,79.34
2022-08-17T11:31:40.404Z,78.54
2022-08-17T11:32:47.533Z,78.84
2022-08-17T11:33:40.421Z,78.94
2022-08-17T11:34:40.354Z,79.04
2022-08-17T11:35:40.386Z,79.24
2022-08-17T11:36:40.533Z,78.64
2022-08-17T11:37:40.381Z,79.04
2022-08-17T11:38:40.348Z,79.94
2022-08-17T11:39:40.363Z,80.54
2022-08-17T11:40:40.373Z,80.14
2022-08-17T11:41:40.426Z,79.24
2022-08-17T11:42:40.338Z,79.34
2022-08-17T11:43:42.805Z,79.74
2022-08-17T11:44:40.300Z,80.04
2022-08-17T11:45:40.459Z,79.84
2022-08-17T11:46:40.300Z,79.44
2022-08-17T11:47:40.366Z,79.54
2022-08-17T11:48:40.232Z,79.04
2022-08-17T11:49:40.419Z,79.40
2022-08-17T11:50:40.299Z,79.60
2022-08-17T11:51:40.241Z,79.70
2022-08-17T11:52:40.264Z,80.10
2022-08-17T11:53:40.367Z,79.70
2022-08-17T11:54:40.342Z,79.70
2022-08-17T11:55:44.457Z,79.46
2022-08-17T11:56:40.146Z,79.57
2022-08-17T11:57:40.227Z,79.76
2022-08-17T11:58:40.421Z,79.46
2022-08-17T11:59:40.181Z,79.36
2022-08-17T12:00:40.270Z,79.46
2022-08-17T12:01:40.264Z,79.93
2022-08-17T12:02:42.416Z,79.82
2022-08-17T12:03:40.150Z,80.32
2022-08-17T12:04:40.318Z,78.39
2022-08-17T12:05:40.272Z,77.99
2022-08-17T12:06:40.307Z,77.36
2022-08-17T12:07:40.059Z,77.16
2022-08-17T12:08:40.019Z,78.42
2022-08-17T12:09:40.183Z,76.49
2022-08-17T12:10:40.105Z,77.88
2022-08-17T12:12:01.687Z,75.16
2022-08-17T12:12:40.301Z,76.25
2022-08-17T12:13:40.124Z,75.72
2022-08-17T12:15:08.105Z,75.52
2022-08-17T12:15:40.117Z,75.42
2022-08-17T12:16:40.221Z,74.89
2022-08-17T12:17:42.761Z,76.18
2022-08-17T12:18:40.051Z,74.55
2022-08-17T12:19:40.140Z,73.16
2022-08-17T12:20:40.147Z,72.47
2022-08-17T12:21:39.988Z,73.76
2022-08-17T12:22:39.910Z,73.56
2022-08-17T12:23:39.987Z,74.06
2022-08-17T12:24:39.906Z,73.90
2022-08-17T12:25:40.178Z,74.39
2022-08-17T12:26:39.821Z,74.99
2022-08-17T12:28:04.140Z,74.49
2022-08-17T12:28:39.852Z,74.99
2022-08-17T12:29:39.979Z,74.79
2022-08-17T12:30:39.821Z,75.38
2022-08-17T12:31:39.866Z,73.90
2022-08-17T12:32:39.837Z,72.80
2022-08-17T12:33:39.795Z,74.89
2022-08-17T12:34:39.895Z,74.29
2022-08-17T12:35:39.996Z,73.76
2022-08-17T12:36:39.789Z,73.56
2022-08-17T12:37:39.748Z,72.57
2022-08-17T12:38:39.984Z,74.09
2022-08-17T12:39:39.988Z,73.20
2022-08-17T12:40:39.736Z,73.80
2022-08-17T12:41:39.798Z,73.30
2022-08-17T12:42:39.677Z,74.19
2022-08-17T12:43:39.678Z,74.59
2022-08-17T12:44:42.574Z,73.93
2022-08-17T12:45:39.686Z,75.22
2022-08-17T12:46:39.654Z,73.93
2022-08-17T12:47:39.677Z,74.23
2022-08-17T12:48:39.844Z,74.43
2022-08-17T12:49:39.677Z,75.42
2022-08-17T12:50:39.848Z,76.18
2022-08-17T12:51:39.679Z,74.59
2022-08-17T12:52:39.631Z,74.99
2022-08-17T12:53:39.836Z,73.80